createdAt,value
2018-08-25T00:02:12.299Z,17.75
2018-08-25T00:04:52.542Z,17.73
2018-08-25T00:07:34.302Z,17.70
2018-08-25T00:10:13.240Z,17.69
2018-08-25T00:12:54.194Z,17.68
2018-08-25T00:15:32.681Z,17.68
2018-08-25T00:18:13.422Z,17.66
2018-08-25T00:20:52.367Z,17.65
2018-08-25T00:23:31.161Z,17.63
2018-08-25T00:26:10.480Z,17.61
2018-08-25T00:28:49.361Z,17.57
2018-08-25T00:31:28.698Z,17.53
2018-08-25T00:34:08.538Z,17.50
2018-08-25T00:36:47.579Z,17.42
2018-08-25T00:39:26.197Z,17.33
2018-08-25T00:42:05.040Z,17.25
2018-08-25T00:44:44.540Z,17.21
2018-08-25T00:47:26.139Z,17.16
2018-08-25T00:50:06.781Z,17.09
2018-08-25T00:52:46.183Z,17.04
2018-08-25T00:55:26.220Z,16.99
2018-08-25T00:58:04.983Z,16.92
2018-08-25T01:00:43.480Z,16.87
2018-08-25T01:03:22.801Z,16.82
2018-08-25T01:06:01.600Z,16.75
2018-08-25T01:08:42.602Z,16.69
2018-08-25T01:11:22.142Z,16.70
2018-08-25T01:14:01.486Z,16.66
2018-08-25T01:16:40.503Z,16.64
2018-08-25T01:19:19.421Z,16.63
2018-08-25T01:21:57.982Z,16.63
2018-08-25T01:24:37.158Z,16.63
2018-08-25T01:27:15.942Z,16.64
2018-08-25T01:29:54.042Z,16.65
2018-08-25T01:32:32.381Z,16.66
2018-08-25T01:35:10.604Z,16.65
2018-08-25T01:37:50.618Z,16.69
2018-08-25T03:10:31.141Z,16.45
2018-08-25T03:13:10.260Z,16.44
2018-08-25T03:15:51.083Z,16.45
2018-08-25T03:18:29.806Z,16.42
2018-08-25T03:21:08.082Z,16.39
2018-08-25T03:23:51.081Z,16.35
2018-08-25T03:26:31.576Z,16.32
2018-08-25T03:29:11.297Z,16.32
2018-08-25T03:31:52.822Z,16.31
2018-08-25T03:34:32.202Z,16.32
2018-08-25T03:37:11.836Z,16.34
2018-08-25T03:39:50.121Z,16.33
2018-08-25T03:42:31.839Z,16.31
2018-08-25T03:45:13.942Z,16.30
2018-08-25T03:47:54.719Z,16.31
2018-08-25T03:50:33.918Z,16.33
2018-08-25T03:53:15.562Z,16.31
2018-08-25T03:55:56.041Z,16.29
2018-08-25T03:58:37.457Z,16.29
2018-08-25T04:01:15.999Z,16.32
2018-08-25T04:03:55.761Z,16.32
2018-08-25T04:06:36.805Z,16.30
2018-08-25T04:09:20.562Z,16.28
2018-08-25T04:12:02.783Z,16.27
2018-08-25T04:14:42.743Z,16.28
2018-08-25T04:17:22.001Z,16.26
2018-08-25T04:20:01.323Z,16.22
2018-08-25T04:22:40.618Z,16.22
2018-08-25T04:25:21.962Z,16.21
2018-08-25T04:28:05.513Z,16.19
2018-08-25T04:30:45.579Z,16.18
2018-08-25T04:33:26.260Z,16.13
2018-08-25T04:36:05.148Z,16.13
2018-08-25T04:38:46.440Z,16.11
2018-08-25T04:41:25.749Z,16.14
2018-08-25T04:44:04.358Z,16.15
2018-08-25T04:46:47.240Z,16.13
2018-08-25T04:49:28.786Z,16.09
2018-08-25T04:52:08.463Z,16.11
2018-08-25T04:54:48.599Z,16.12
2018-08-25T04:57:28.717Z,16.16
2018-08-25T05:00:07.862Z,16.22
2018-08-25T05:02:47.060Z,16.22
2018-08-25T05:05:26.224Z,16.22
2018-08-25T05:08:04.668Z,16.22
2018-08-25T05:10:42.583Z,16.21
2018-08-25T05:13:22.459Z,16.21
2018-08-25T05:16:04.005Z,16.21
2018-08-25T05:18:44.638Z,16.24
2018-08-25T05:21:24.764Z,16.24
2018-08-25T05:24:04.265Z,16.30
2018-08-25T05:26:44.025Z,16.31
2018-08-25T05:29:23.880Z,16.33
2018-08-25T05:32:04.999Z,16.37
2018-08-25T05:34:44.942Z,16.37
2018-08-25T05:37:25.560Z,16.39
2018-08-25T05:40:04.339Z,16.41
2018-08-25T05:42:44.680Z,16.46
2018-08-25T05:45:22.260Z,16.50
2018-08-25T05:48:01.643Z,16.52
2018-08-25T05:50:41.005Z,16.56
2018-08-25T05:53:19.959Z,16.59
2018-08-25T05:56:00.044Z,16.64
2018-08-25T05:58:39.298Z,16.69
2018-08-25T06:01:19.390Z,16.74
2018-08-25T06:03:59.661Z,16.76
2018-08-25T06:06:39.504Z,16.78
2018-08-25T06:09:22.519Z,16.80
2018-08-25T06:12:01.139Z,16.81
2018-08-25T06:14:41.240Z,16.83
2018-08-25T06:17:21.287Z,16.86
2018-08-25T06:19:59.586Z,16.83
2018-08-25T06:22:39.436Z,16.82
2018-08-25T06:25:18.859Z,16.82
2018-08-25T06:27:59.856Z,16.84
2018-08-25T06:30:39.158Z,16.83
2018-08-25T06:33:20.985Z,16.82
2018-08-25T06:36:00.646Z,16.87
2018-08-25T06:38:42.640Z,16.95
2018-08-25T06:41:23.098Z,17.00
2018-08-25T06:44:01.850Z,17.05
2018-08-25T06:46:43.695Z,17.09
2018-08-25T06:49:23.082Z,17.10
2018-08-25T06:52:02.621Z,17.14
2018-08-25T06:54:39.999Z,17.23
2018-08-25T06:57:21.162Z,17.31
2018-08-25T06:59:58.938Z,17.38
2018-08-25T07:02:36.854Z,17.48
2018-08-25T07:05:14.138Z,17.54
2018-08-25T07:07:55.024Z,17.55
2018-08-25T07:10:35.419Z,17.56
2018-08-25T07:13:15.880Z,17.59
2018-08-25T07:15:56.321Z,17.66
2018-08-25T07:18:34.139Z,17.71
2018-08-25T07:21:14.476Z,17.81
2018-08-25T07:23:54.583Z,17.94
2018-08-25T07:26:35.758Z,18.03
2018-08-25T08:55:50.200Z,19.89
2018-08-25T08:58:29.476Z,19.96
2018-08-25T09:01:09.325Z,19.98
2018-08-25T09:03:48.321Z,20.00
2018-08-25T09:06:28.088Z,20.00
2018-08-25T09:09:06.498Z,19.98
2018-08-25T09:11:47.995Z,19.95
2018-08-25T09:14:26.085Z,19.85
2018-08-25T09:17:04.825Z,19.84
2018-08-25T09:19:47.602Z,19.88
2018-08-25T09:22:26.824Z,19.85
2018-08-25T09:25:05.658Z,19.77
2018-08-25T09:27:44.899Z,19.72
2018-08-25T09:30:27.183Z,19.69
2018-08-25T09:33:09.139Z,19.66
2018-08-25T09:35:53.613Z,19.69
2018-08-25T09:38:39.405Z,19.72
2018-08-25T09:41:21.720Z,19.72
2018-08-25T09:44:01.146Z,19.71
2018-08-25T09:46:43.698Z,19.74
2018-08-25T09:49:26.286Z,19.74
2018-08-25T09:52:10.019Z,19.73
2018-08-25T09:54:49.600Z,19.75
2018-08-25T09:57:31.719Z,19.64
2018-08-25T10:00:11.202Z,19.58
2018-08-25T10:02:53.939Z,19.56
2018-08-25T10:05:35.479Z,19.53
2018-08-25T10:46:44.718Z,19.16
2018-08-25T12:07:19.333Z,18.15
2018-08-25T12:10:01.572Z,18.18
2018-08-25T12:12:44.153Z,18.24
2018-08-25T12:15:24.491Z,18.27
2018-08-25T12:18:04.855Z,18.26
2018-08-25T12:47:41.892Z,18.17
2018-08-25T12:50:20.171Z,18.19
2018-08-25T12:52:59.632Z,18.21
2018-08-25T12:55:39.333Z,18.23
2018-08-25T12:58:16.539Z,18.28
2018-08-25T13:01:00.815Z,18.34
2018-08-25T13:03:40.093Z,18.42
2018-08-25T13:06:19.869Z,18.42
2018-08-25T13:08:57.999Z,18.40
2018-08-25T13:11:38.613Z,18.39
2018-08-25T13:14:19.898Z,18.42
2018-08-25T13:17:04.794Z,18.37
2018-08-25T13:19:45.012Z,18.33
2018-08-25T13:22:26.577Z,18.31
2018-08-25T13:25:07.919Z,18.34
2018-08-25T13:27:51.034Z,18.32
2018-08-25T13:30:31.072Z,18.31
2018-08-25T13:33:09.252Z,18.31
2018-08-25T13:35:47.855Z,18.32
2018-08-25T13:38:26.798Z,18.34
2018-08-25T13:41:05.107Z,18.34
2018-08-25T13:43:44.004Z,18.35
2018-08-25T13:46:23.473Z,18.36
2018-08-25T13:49:06.356Z,18.34
2018-08-25T13:51:44.896Z,18.29
2018-08-25T13:54:21.959Z,18.28
2018-08-25T13:57:03.274Z,18.23
2018-08-25T13:59:42.373Z,18.20
2018-08-25T14:02:22.838Z,18.15
2018-08-25T14:05:04.738Z,18.14
2018-08-25T14:07:46.253Z,18.10
2018-08-25T14:10:28.670Z,18.13
2018-08-25T14:13:10.029Z,18.12
2018-08-25T14:15:50.358Z,18.13
2018-08-25T14:18:31.113Z,18.12
2018-08-25T14:21:13.014Z,18.06
2018-08-25T14:23:53.553Z,18.04
2018-08-25T14:26:36.459Z,18.04
2018-08-25T14:29:18.655Z,18.09
2018-08-25T14:31:56.952Z,18.15
2018-08-25T14:34:37.896Z,18.18
2018-08-25T14:37:16.874Z,18.21
2018-08-25T14:39:57.293Z,18.21
2018-08-25T14:42:36.582Z,18.21
2018-08-25T14:45:17.915Z,18.23
2018-08-25T14:47:54.773Z,18.27
2018-08-25T14:50:34.632Z,18.24
2018-08-25T14:53:14.823Z,18.22
2018-08-25T14:55:53.316Z,18.26
2018-08-25T14:58:30.908Z,18.25
2018-08-25T15:01:11.335Z,18.25
2018-08-25T15:03:48.375Z,18.25
2018-08-25T15:06:30.215Z,18.29
2018-08-25T15:09:15.191Z,18.25
2018-08-25T15:11:53.771Z,18.28
2018-08-25T15:14:34.001Z,18.29
2018-08-25T15:17:12.336Z,18.34
2018-08-25T15:19:54.435Z,18.30
2018-08-25T15:22:34.499Z,18.25
2018-08-25T15:25:15.052Z,18.22
2018-08-25T15:27:54.410Z,18.23
2018-08-25T15:30:32.019Z,18.26
2018-08-25T15:33:13.935Z,18.29
2018-08-25T15:35:56.537Z,18.29
2018-08-25T15:38:37.981Z,18.31
2018-08-25T15:41:16.994Z,18.34
2018-08-25T15:43:55.073Z,18.31
2018-08-25T15:46:35.351Z,18.33
2018-08-25T15:49:13.633Z,18.40
2018-08-25T15:51:56.461Z,18.45
2018-08-25T15:54:35.373Z,18.45
2018-08-25T15:57:15.394Z,18.41
2018-08-25T15:59:53.816Z,18.42
2018-08-25T16:02:32.136Z,18.46
2018-08-25T16:05:13.373Z,18.48
2018-08-25T16:07:52.661Z,18.47
2018-08-25T16:10:31.533Z,18.48
2018-08-25T16:13:13.332Z,18.50
2018-08-25T16:15:52.120Z,18.51
2018-08-25T16:18:30.710Z,18.51
2018-08-25T16:21:12.017Z,18.48
2018-08-25T16:23:50.810Z,18.48
2018-08-25T16:26:29.950Z,18.45
2018-08-25T16:29:07.715Z,18.43
2018-08-25T16:31:48.952Z,18.40
2018-08-25T16:34:27.193Z,18.41
2018-08-25T16:37:05.857Z,18.42
2018-08-25T16:39:45.291Z,18.46
2018-08-25T16:42:24.057Z,18.49
2018-08-25T18:11:32.505Z,17.68
2018-08-25T18:14:10.947Z,17.64
2018-08-25T18:16:51.907Z,17.59
2018-08-25T18:19:29.709Z,17.55
2018-08-25T18:22:09.469Z,17.47
2018-08-25T18:24:47.664Z,17.41
2018-08-25T18:27:28.984Z,17.36
2018-08-25T18:30:11.989Z,17.34
2018-08-25T18:32:53.168Z,17.33
2018-08-25T18:35:32.180Z,17.31
2018-08-25T18:38:10.886Z,17.31
2018-08-25T18:40:52.525Z,17.28
2018-08-25T18:43:40.785Z,17.28
2018-08-25T18:46:18.406Z,17.27
2018-08-25T18:48:56.664Z,17.26
2018-08-25T18:51:35.826Z,17.26
2018-08-25T18:54:16.057Z,17.25
2018-08-25T18:56:56.273Z,17.23
2018-08-25T18:59:35.877Z,17.19
2018-08-25T19:02:15.545Z,17.14
2018-08-25T19:04:53.830Z,17.10
2018-08-25T19:07:33.026Z,17.06
2018-08-25T19:10:15.170Z,17.00
2018-08-25T19:13:00.545Z,16.90
2018-08-25T19:15:38.026Z,16.79
2018-08-25T19:18:15.983Z,16.70
2018-08-25T19:20:59.569Z,16.59
2018-08-25T19:23:38.561Z,16.48
2018-08-25T19:26:17.049Z,16.40
2018-08-25T19:28:54.971Z,16.32
2018-08-25T19:31:34.911Z,16.30
2018-08-25T19:34:13.505Z,16.28
2018-08-25T19:36:53.726Z,16.26
2018-08-25T19:39:33.808Z,16.21
2018-08-25T19:42:11.958Z,16.18
2018-08-25T19:44:51.112Z,16.15
2018-08-25T19:47:30.767Z,16.09
2018-08-25T19:50:09.928Z,16.00
2018-08-25T19:52:49.166Z,15.93
2018-08-25T19:55:29.907Z,15.87
2018-08-25T19:58:10.527Z,15.80
2018-08-25T20:00:52.865Z,15.75
2018-08-25T20:03:31.548Z,15.68
2018-08-25T20:06:08.885Z,15.59
2018-08-25T20:08:50.215Z,15.49
2018-08-25T20:11:28.402Z,15.40
2018-08-25T20:14:05.662Z,15.33
2018-08-25T20:16:43.528Z,15.28
2018-08-25T20:19:25.332Z,15.22
2018-08-25T20:22:07.627Z,15.18
2018-08-25T20:24:48.828Z,15.11
2018-08-25T20:27:27.648Z,15.07
2018-08-25T20:30:08.597Z,14.97
2018-08-25T20:32:49.807Z,14.91
2018-08-25T20:35:29.945Z,14.86
2018-08-25T20:38:11.587Z,14.84
2018-08-25T20:40:53.035Z,14.84
2018-08-25T20:43:33.990Z,14.79
2018-08-25T20:46:15.682Z,14.74
2018-08-25T20:49:00.023Z,14.73
2018-08-25T20:51:48.443Z,14.72
2018-08-25T20:54:31.030Z,14.70
2018-08-25T20:57:09.725Z,14.68
2018-08-25T20:59:49.168Z,14.66
2018-08-25T21:02:29.187Z,14.64
2018-08-25T21:05:08.287Z,14.61
2018-08-25T21:07:50.050Z,14.58
2018-08-25T21:10:29.163Z,14.56
2018-08-25T21:13:12.227Z,14.56
2018-08-25T21:15:54.221Z,14.54
2018-08-25T21:18:32.302Z,14.50
2018-08-25T21:21:15.505Z,14.47
2018-08-25T21:23:59.268Z,14.44
2018-08-25T21:26:37.137Z,14.40
2018-08-25T21:29:18.130Z,14.38
2018-08-25T21:32:00.268Z,14.33
2018-08-25T21:34:42.427Z,14.29
2018-08-25T21:37:24.891Z,14.24
2018-08-25T21:40:06.005Z,14.21
2018-08-25T21:42:44.151Z,14.16
2018-08-25T21:45:24.592Z,14.11
2018-08-25T21:48:03.890Z,14.05
2018-08-25T21:50:48.442Z,14.03
2018-08-25T21:53:27.509Z,13.96
2018-08-25T21:56:05.222Z,13.93
2018-08-25T21:58:43.144Z,13.86
2018-08-25T23:25:00.847Z,12.94
2018-08-25T23:27:44.301Z,12.95
2018-08-25T23:30:24.491Z,12.99
2018-08-25T23:33:03.079Z,13.01
2018-08-25T23:35:42.604Z,13.05
2018-08-25T23:38:20.955Z,13.08
2018-08-25T23:41:03.181Z,13.10
2018-08-25T23:43:43.746Z,13.12
2018-08-25T23:46:24.420Z,13.12
2018-08-25T23:49:04.081Z,13.11
2018-08-25T23:51:43.601Z,13.11
2018-08-25T23:54:24.643Z,13.08
2018-08-25T23:57:05.082Z,13.06
2018-08-25T23:59:44.458Z,13.03
